Time,TemperatureF,DewpointF,PressureIn,WindDirection,WindDirectionDegrees,WindSpeedMPH,WindSpeedGustMPH,Humidity,HourlyPrecipIn,Conditions,Clouds,dailyrainin,SoftwareType,DateUTC
2013-09-15 00:02:00,44.3,39.6,29.32,ENE,68,0.0,0.0,83,0.00,,,0.00,WSDL version 420,2013-09-15 04:02:00,
2013-09-15 00:08:00,44.2,39.5,29.32,ENE,68,0.0,0.0,83,0.00,,,0.00,WSDL version 420,2013-09-15 04:08:00,
2013-09-15 00:10:00,44.2,39.4,29.32,ENE,68,0.0,0.0,83,0.00,,,0.00,WSDL version 420,2013-09-15 04:10:00,
2013-09-15 00:16:00,44.1,39.3,29.32,ENE,68,0.0,0.0,83,0.00,,,0.00,WSDL version 420,2013-09-15 04:16:00,
2013-09-15 00:21:00,44.0,39.3,29.32,ENE,68,0.0,0.0,83,0.00,,,0.00,WSDL version 420,2013-09-15 04:21:00,
2013-09-15 00:23:00,43.9,39.2,-100.00,ENE,68,0.0,0.0,83,0.00,,,0.00,WSDL version 420,2013-09-15 04:23:00,
2013-09-15 00:27:00,43.9,39.3,-100.00,ENE,68,0.0,0.0,84,0.00,,,0.00,WSDL version 420,2013-09-15 04:27:00,
2013-09-15 00:37:00,43.9,39.5,-100.00,ENE,68,0.0,0.0,84,0.00,,,0.00,WSDL version 420,2013-09-15 04:37:00,
2013-09-15 00:43:00,43.9,39.5,29.32,ENE,68,0.0,0.0,84,0.00,,,0.00,WSDL version 420,2013-09-15 04:43:00,
2013-09-15 00:49:00,43.9,39.7,29.32,ENE,68,0.0,0.0,86,0.00,,,0.00,WSDL version 420,2013-09-15 04:49:00,
2013-09-15 00:58:00,44.5,40.8,-100.00,ESE,113,0.0,0.0,87,0.00,,,0.00,WSDL version 420,2013-09-15 04:58:00,
2013-09-15 01:04:00,45.1,41.5,29.32,ESE,113,0.0,0.0,87,0.00,,,0.00,WSDL version 420,2013-09-15 05:04:00,
2013-09-15 01:09:00,45.9,42.4,29.32,SSE,158,0.0,0.0,88,0.00,,,0.00,WSDL version 420,2013-09-15 05:09:00,
2013-09-15 01:17:00,46.4,42.6,29.32,South,170,0.0,0.0,87,-99.99,,,-99.99,WSDL version 420,2013-09-15 05:17:00,
2013-09-15 01:23:00,46.8,43.0,-100.00,SSW,203,0.0,0.0,87,-99.99,,,-99.99,WSDL version 420,2013-09-15 05:23:00,
2013-09-15 01:33:00,47.1,43.4,29.32,SSW,203,0.0,0.0,87,0.00,,,0.00,WSDL version 420,2013-09-15 05:33:00,
2013-09-15 01:40:00,47.3,43.5,29.29,SSW,203,0.0,0.0,87,0.00,,,0.00,WSDL version 420,2013-09-15 05:40:00,
2013-09-15 01:47:00,47.5,44.0,29.29,SW,219,0.0,0.0,88,-99.99,,,-99.99,WSDL version 420,2013-09-15 05:47:00,
2013-09-15 01:54:00,47.7,44.2,-100.00,SW,216,0.0,0.0,88,-99.99,,,-99.99,WSDL version 420,2013-09-15 05:54:00,
2013-09-15 02:00:00,47.7,44.1,-100.00,SW,225,0.0,0.0,87,0.00,,,0.00,WSDL version 420,2013-09-15 06:00:00,
2013-09-15 02:07:00,47.8,44.4,29.32,SW,236,0.0,0.0,88,-99.99,,,-99.99,WSDL version 420,2013-09-15 06:07:00,
2013-09-15 02:12:00,47.8,44.2,29.29,SW,225,0.0,0.0,87,0.00,,,0.00,WSDL version 420,2013-09-15 06:12:00,
2013-09-15 02:17:00,48.0,44.6,29.29,SW,225,0.0,0.0,88,0.00,,,0.00,WSDL version 420,2013-09-15 06:17:00,
2013-09-15 02:23:00,48.0,44.2,-100.00,WSW,248,0.0,0.0,87,0.00,,,0.00,WSDL version 420,2013-09-15 06:23:00,
2013-09-15 02:29:00,48.0,44.2,29.29,SW,233,0.0,0.0,87,0.00,,,0.00,WSDL version 420,2013-09-15 06:29:00,
2013-09-15 02:39:00,48.0,44.2,29.29,SW,225,0.0,0.0,87,-99.99,,,-99.99,WSDL version 420,2013-09-15 06:39:00,
2013-09-15 02:45:00,48.0,44.1,29.29,SW,225,0.0,0.0,86,0.00,,,0.00,WSDL version 420,2013-09-15 06:45:00,
2013-09-15 02:50:00,48.0,43.9,29.29,SW,225,0.0,0.0,86,0.00,,,0.00,WSDL version 420,2013-09-15 06:50:00,
2013-09-15 02:56:00,48.0,43.9,-100.00,SW,225,0.0,0.0,86,0.00,,,0.00,WSDL version 420,2013-09-15 06:56:00,
2013-09-15 04:04:00,47.7,42.9,29.29,WSW,248,0.0,0.0,83,-99.99,,,-99.99,WSDL version 420,2013-09-15 08:04:00,
2013-09-15 04:13:00,47.7,42.9,-100.00,WSW,248,0.0,0.0,83,0.00,,,0.00,WSDL version 420,2013-09-15 08:13:00,
2013-09-15 04:19:00,47.7,42.9,29.29,WSW,248,0.0,0.0,83,0.00,,,0.00,WSDL version 420,2013-09-15 08:19:00,
2013-09-15 04:26:00,47.7,43.2,29.29,WSW,248,0.0,0.0,84,0.00,,,0.00,WSDL version 420,2013-09-15 08:26:00,
2013-09-15 04:32:00,47.7,43.1,29.29,WSW,248,0.0,0.0,83,0.00,,,0.00,WSDL version 420,2013-09-15 08:32:00,
2013-09-15 04:40:00,47.5,42.7,29.29,SW,225,0.0,0.0,83,0.00,,,0.00,WSDL version 420,2013-09-15 08:40:00,
2013-09-15 04:48:00,47.3,42.5,29.29,SW,225,0.0,0.0,83,0.00,,,0.00,WSDL version 420,2013-09-15 08:48:00,
2013-09-15 04:54:00,47.3,42.5,29.29,SW,225,0.0,0.0,83,-99.99,,,-99.99,WSDL version 420,2013-09-15 08:54:00,
2013-09-15 05:00:00,47.1,42.3,-100.00,SSW,203,0.0,0.0,83,0.00,,,0.00,WSDL version 420,2013-09-15 09:00:00,
2013-09-15 05:06:00,47.1,42.5,29.29,SSW,203,0.0,0.0,84,0.00,,,0.00,WSDL version 420,2013-09-15 09:06:00,
2013-09-15 05:16:00,46.9,42.5,-100.00,SSW,203,0.0,0.0,84,0.00,,,0.00,WSDL version 420,2013-09-15 09:16:00,
2013-09-15 05:22:00,47.0,42.6,29.29,SSW,203,0.0,0.0,84,-99.99,,,-99.99,WSDL version 420,2013-09-15 09:22:00,
2013-09-15 05:27:00,47.1,42.7,29.29,SSW,203,0.0,0.0,84,0.00,,,0.00,WSDL version 420,2013-09-15 09:27:00,
2013-09-15 05:37:00,47.1,42.7,-100.00,SSW,203,0.0,0.0,84,0.00,,,0.00,WSDL version 420,2013-09-15 09:37:00,
2013-09-15 05:49:00,47.3,42.9,29.29,SSW,203,0.0,0.0,84,0.00,,,0.00,WSDL version 420,2013-09-15 09:49:00,
2013-09-15 05:58:00,47.5,43.2,-100.00,SW,225,0.0,0.0,84,0.00,,,0.00,WSDL version 420,2013-09-15 09:58:00,
2013-09-15 06:04:00,47.5,43.4,-100.00,SW,230,0.0,0.0,86,0.00,,,0.00,WSDL version 420,2013-09-15 10:04:00,
2013-09-15 06:09:00,47.5,43.4,29.29,SW,216,0.0,0.0,86,-99.99,,,-99.99,WSDL version 420,2013-09-15 10:09:00,
2013-09-15 06:15:00,47.5,43.2,29.29,SSW,203,0.0,0.0,84,0.00,,,0.00,WSDL version 420,2013-09-15 10:15:00,
2013-09-15 06:22:00,47.3,42.9,-100.00,SW,225,0.0,0.0,84,0.00,,,0.00,WSDL version 420,2013-09-15 10:22:00,
2013-09-15 06:28:00,47.5,43.0,-100.00,SW,225,0.0,0.0,84,0.00,,,0.00,WSDL version 420,2013-09-15 10:28:00,
2013-09-15 06:33:00,47.5,42.7,-100.00,West,259,0.0,0.0,83,0.00,,,0.00,WSDL version 420,2013-09-15 10:33:00,
2013-09-15 06:39:00,47.7,43.2,29.32,SW,225,0.0,0.0,84,0.00,,,0.00,WSDL version 420,2013-09-15 10:39:00,
2013-09-15 06:47:00,47.7,43.0,-100.00,SW,225,0.0,0.0,83,0.00,,,0.00,WSDL version 420,2013-09-15 10:47:00,
2013-09-15 06:54:00,47.7,42.9,29.32,SW,225,0.0,0.0,83,0.00,,,0.00,WSDL version 420,2013-09-15 10:54:00,
2013-09-15 07:01:00,47.7,42.9,29.32,WSW,248,0.0,0.0,83,-99.99,,,-99.99,WSDL version 420,2013-09-15 11:01:00,
2013-09-15 07:07:00,47.7,42.9,-100.00,SW,218,0.0,0.0,83,0.00,,,0.00,WSDL version 420,2013-09-15 11:07:00,
2013-09-15 07:13:00,47.8,43.0,29.32,SW,225,0.0,0.0,83,0.00,,,0.00,WSDL version 420,2013-09-15 11:13:00,
2013-09-15 07:18:00,47.9,43.1,-100.00,WSW,244,0.0,0.0,83,0.00,,,0.00,WSDL version 420,2013-09-15 11:18:00,
2013-09-15 07:24:00,48.2,43.4,-100.00,SW,218,0.0,0.0,83,0.00,,,0.00,WSDL version 420,2013-09-15 11:24:00,
2013-09-15 07:30:00,48.3,43.8,29.32,SW,225,0.0,0.0,84,0.00,,,0.00,WSDL version 420,2013-09-15 11:30:00,
2013-09-15 07:37:00,48.7,44.3,29.32,WSW,248,0.0,0.0,84,0.00,,,0.00,WSDL version 420,2013-09-15 11:37:00,
2013-09-15 07:43:00,48.7,44.3,-100.00,WSW,239,0.0,0.9,84,0.00,,,0.00,WSDL version 420,2013-09-15 11:43:00,
2013-09-15 07:48:00,48.9,44.0,-100.00,SW,228,0.0,0.0,82,0.00,,,0.00,WSDL version 420,2013-09-15 11:48:00,
2013-09-15 07:57:00,49.3,43.4,-100.00,WSW,248,0.0,0.0,80,0.00,,,0.00,WSDL version 420,2013-09-15 11:57:00,
2013-09-15 08:03:00,49.6,43.6,29.32,WSW,248,0.0,0.0,80,0.00,,,0.00,WSDL version 420,2013-09-15 12:03:00,
2013-09-15 08:09:00,49.9,43.7,29.32,WSW,240,0.0,0.0,79,0.00,,,0.00,WSDL version 420,2013-09-15 12:09:00,
2013-09-15 08:15:00,50.3,43.7,-100.00,WSW,248,0.0,0.0,78,0.00,,,0.00,WSDL version 420,2013-09-15 12:15:00,
2013-09-15 08:22:00,50.6,43.4,-100.00,SW,219,0.0,0.9,76,0.00,,,0.00,WSDL version 420,2013-09-15 12:22:00,
2013-09-15 08:28:00,51.0,43.4,29.32,SW,221,0.0,1.1,75,0.00,,,0.00,WSDL version 420,2013-09-15 12:28:00,
2013-09-15 08:34:00,51.4,43.8,29.32,SW,233,0.0,1.1,75,0.00,,,0.00,WSDL version 420,2013-09-15 12:34:00,
2013-09-15 08:44:00,53.4,45.7,29.32,SW,225,0.0,0.0,75,0.00,,,0.00,WSDL version 420,2013-09-15 12:44:00,
2013-09-15 08:51:00,54.9,45.6,29.32,SW,225,0.0,0.0,71,0.00,,,0.00,WSDL version 420,2013-09-15 12:51:00,
2013-09-15 08:57:00,55.0,45.3,-100.00,SW,214,0.0,0.0,69,0.00,,,0.00,WSDL version 420,2013-09-15 12:57:00,
2013-09-15 09:03:00,54.7,44.3,-100.00,SW,214,0.0,0.0,68,0.00,,,0.00,WSDL version 420,2013-09-15 13:03:00,
2013-09-15 09:09:00,54.7,44.0,29.32,SW,225,0.0,0.9,67,0.00,,,0.00,WSDL version 420,2013-09-15 13:09:00,
2013-09-15 09:14:00,54.8,43.6,29.32,SW,236,0.0,0.0,66,0.00,,,0.00,WSDL version 420,2013-09-15 13:14:00,
2013-09-15 09:20:00,54.9,43.5,29.32,WSW,239,0.0,0.0,65,-99.99,,,-99.99,WSDL version 420,2013-09-15 13:20:00,
2013-09-15 09:27:00,55.3,43.8,29.32,SW,214,0.0,0.0,65,0.00,,,0.00,WSDL version 420,2013-09-15 13:27:00,
2013-09-15 09:36:00,55.9,44.0,29.32,SW,236,0.0,0.0,64,0.00,,,0.00,WSDL version 420,2013-09-15 13:36:00,
2013-09-15 09:45:00,55.9,42.3,29.32,SW,214,0.0,0.9,60,0.00,,,0.00,WSDL version 420,2013-09-15 13:45:00,
2013-09-15 09:56:00,56.8,43.5,-100.00,SW,221,0.0,2.5,61,0.00,,,0.00,WSDL version 420,2013-09-15 13:56:00,
2013-09-15 10:02:00,57.1,44.0,29.32,SSW,212,0.0,0.0,62,0.00,,,0.00,WSDL version 420,2013-09-15 14:02:00,
2013-09-15 10:09:00,58.0,44.0,29.32,SW,221,0.0,0.0,58,0.00,,,0.00,WSDL version 420,2013-09-15 14:09:00,
2013-09-15 10:17:00,59.1,43.0,-100.00,SW,214,0.0,0.0,55,0.00,,,0.00,WSDL version 420,2013-09-15 14:17:00,
2013-09-15 10:23:00,59.6,43.5,-100.00,SW,230,0.0,0.0,55,0.00,,,0.00,WSDL version 420,2013-09-15 14:23:00,
2013-09-15 10:29:00,60.2,43.5,29.32,SW,225,0.0,0.0,54,0.00,,,0.00,WSDL version 420,2013-09-15 14:29:00,
2013-09-15 10:36:00,61.3,44.6,29.32,SW,221,0.0,0.0,54,0.00,,,0.00,WSDL version 420,2013-09-15 14:36:00,
2013-09-15 10:42:00,61.7,44.6,-100.00,SSW,203,0.0,0.0,53,-99.99,,,-99.99,WSDL version 420,2013-09-15 14:42:00,
2013-09-15 10:47:00,62.7,44.1,-100.00,SSW,206,0.0,0.0,50,0.00,,,0.00,WSDL version 420,2013-09-15 14:47:00,
2013-09-15 10:57:00,66.3,45.5,29.29,South,176,0.0,0.9,47,0.00,,,0.00,WSDL version 420,2013-09-15 14:57:00,
2013-09-15 11:08:00,65.5,43.6,-100.00,SW,225,0.0,0.0,45,0.00,,,0.00,WSDL version 420,2013-09-15 15:08:00,
2013-09-15 11:17:00,64.6,42.8,-100.00,SSW,203,0.0,0.0,45,0.00,,,0.00,WSDL version 420,2013-09-15 15:17:00,
2013-09-15 11:23:00,64.7,42.9,29.29,SSW,207,0.0,0.0,45,0.00,,,0.00,WSDL version 420,2013-09-15 15:23:00,
2013-09-15 11:30:00,65.4,43.8,29.32,SSW,203,0.0,0.0,45,0.00,,,0.00,WSDL version 420,2013-09-15 15:30:00,
2013-09-15 11:38:00,65.7,44.3,29.32,South,173,0.0,0.0,46,0.00,,,0.00,WSDL version 420,2013-09-15 15:38:00,
2013-09-15 11:45:00,66.6,45.2,29.32,SSW,203,0.0,0.0,46,0.00,,,0.00,WSDL version 420,2013-09-15 15:45:00,
2013-09-15 11:54:00,67.6,45.0,29.32,SW,219,0.0,0.0,44,0.00,,,0.00,WSDL version 420,2013-09-15 15:54:00,
2013-09-15 12:01:00,68.0,45.6,29.32,SSW,203,0.0,0.0,44,0.00,,,0.00,WSDL version 420,2013-09-15 16:01:00,
2013-09-15 12:15:00,72.3,47.3,-100.00,South,191,0.0,0.0,41,-99.99,,,-99.99,WSDL version 420,2013-09-15 16:15:00,
2013-09-15 12:24:00,70.0,42.9,29.32,North,0,0.0,0.0,37,0.00,,,0.00,WSDL version 420,2013-09-15 16:24:00,
2013-09-15 12:34:00,69.9,44.2,29.32,North,0,0.0,0.0,39,-99.99,,,-99.99,WSDL version 420,2013-09-15 16:34:00,
2013-09-15 12:39:00,69.7,44.0,29.32,North,0,0.0,0.0,40,0.00,,,0.00,WSDL version 420,2013-09-15 16:39:00,
2013-09-15 12:46:00,70.3,45.2,29.29,SW,225,0.0,0.0,40,0.00,,,0.00,WSDL version 420,2013-09-15 16:46:00,
2013-09-15 12:52:00,71.4,46.3,-100.00,SSW,195,0.0,0.0,40,0.00,,,0.00,WSDL version 420,2013-09-15 16:52:00,
2013-09-15 12:58:00,71.4,45.2,29.29,SSW,197,0.0,0.0,39,0.00,,,0.00,WSDL version 420,2013-09-15 16:58:00,
2013-09-15 13:03:00,70.9,44.4,-100.00,SSW,203,0.0,0.0,38,0.00,,,0.00,WSDL version 420,2013-09-15 17:03:00,
2013-09-15 13:09:00,71.1,44.7,-100.00,SW,225,0.0,0.0,39,0.00,,,0.00,WSDL version 420,2013-09-15 17:09:00,
2013-09-15 13:22:00,70.3,42.9,29.29,North,0,0.0,0.0,37,0.00,,,0.00,WSDL version 420,2013-09-15 17:22:00,
2013-09-15 13:28:00,71.5,44.3,29.29,SSW,203,0.0,0.0,37,0.00,,,0.00,WSDL version 420,2013-09-15 17:28:00,
2013-09-15 13:45:00,72.3,44.6,-100.00,North,0,0.0,0.0,37,-99.99,,,-99.99,WSDL version 420,2013-09-15 17:45:00,
2013-09-15 13:53:00,71.4,43.8,29.26,NNW,338,0.0,0.0,37,-99.99,,,-99.99,WSDL version 420,2013-09-15 17:53:00,
2013-09-15 13:58:00,72.5,45.5,-100.00,North,8,0.0,0.0,38,-99.99,,,-99.99,WSDL version 420,2013-09-15 17:58:00,
2013-09-15 14:35:00,72.3,43.2,-100.00,SW,225,0.0,0.0,35,0.00,,,0.00,WSDL version 420,2013-09-15 18:35:00,
2013-09-15 14:43:00,70.5,40.8,29.26,SW,221,0.0,0.0,34,-99.99,,,-99.99,WSDL version 420,2013-09-15 18:43:00,
2013-09-15 14:48:00,70.0,40.4,29.26,SSW,203,0.0,0.0,34,0.00,,,0.00,WSDL version 420,2013-09-15 18:48:00,
2013-09-15 14:53:00,69.6,40.5,29.23,South,180,0.0,0.0,35,0.00,,,0.00,WSDL version 420,2013-09-15 18:53:00,
2013-09-15 15:01:00,69.3,40.8,29.23,SSW,194,0.0,0.0,36,0.00,,,0.00,WSDL version 420,2013-09-15 19:01:00,
2013-09-15 15:09:00,69.3,41.9,29.26,SSW,203,0.0,0.0,37,0.00,,,0.00,WSDL version 420,2013-09-15 19:09:00,
2013-09-15 15:18:00,68.9,42.3,29.26,SSW,203,0.0,0.0,38,-99.99,,,-99.99,WSDL version 420,2013-09-15 19:18:00,
2013-09-15 15:24:00,68.4,41.5,29.26,SSW,203,0.0,0.0,38,0.00,,,0.00,WSDL version 420,2013-09-15 19:24:00,
2013-09-15 15:34:00,68.2,42.3,29.26,SSW,203,0.0,0.0,39,0.00,,,0.00,WSDL version 420,2013-09-15 19:34:00,
2013-09-15 15:42:00,68.1,41.9,-100.00,South,185,0.0,0.0,39,-99.99,,,-99.99,WSDL version 420,2013-09-15 19:42:00,
2013-09-15 15:47:00,67.8,42.0,29.26,North,0,0.0,0.0,39,0.00,,,0.00,WSDL version 420,2013-09-15 19:47:00,
2013-09-15 16:36:00,68.2,43.0,29.26,SW,225,0.0,0.0,40,0.00,,,0.00,WSDL version 420,2013-09-15 20:36:00,
2013-09-15 16:42:00,68.0,42.1,29.26,WSW,239,0.0,0.0,39,0.00,,,0.00,WSDL version 420,2013-09-15 20:42:00,
2013-09-15 16:48:00,67.7,42.1,29.26,North,6,0.0,0.0,40,0.00,,,0.00,WSDL version 420,2013-09-15 20:48:00,
2013-09-15 17:12:00,66.7,41.8,29.23,SSW,203,0.0,0.0,41,0.00,,,0.00,WSDL version 420,2013-09-15 21:12:00,
2013-09-15 17:23:00,66.2,41.2,29.26,SSW,203,0.0,0.0,40,0.00,,,0.00,WSDL version 420,2013-09-15 21:23:00,
2013-09-15 17:40:00,66.4,42.0,29.26,SSW,203,0.0,0.0,41,-99.99,,,-99.99,WSDL version 420,2013-09-15 21:40:00,
2013-09-15 17:49:00,66.4,43.2,29.26,SSW,203,0.0,0.0,43,0.00,,,0.00,WSDL version 420,2013-09-15 21:49:00,
2013-09-15 17:55:00,66.3,43.2,-100.00,SSW,203,0.0,0.0,43,0.00,,,0.00,WSDL version 420,2013-09-15 21:55:00,
2013-09-15 18:01:00,66.0,43.5,29.26,SSW,203,0.0,0.0,44,0.00,,,0.00,WSDL version 420,2013-09-15 22:01:00,
2013-09-15 18:08:00,65.8,43.3,-100.00,SSW,203,0.0,0.0,44,0.00,,,0.00,WSDL version 420,2013-09-15 22:08:00,
2013-09-15 18:16:00,65.8,44.2,-100.00,SE,135,0.0,0.0,46,0.00,,,0.00,WSDL version 420,2013-09-15 22:16:00,
2013-09-15 18:28:00,65.4,43.5,29.23,SSE,155,0.0,0.0,45,0.00,,,0.00,WSDL version 420,2013-09-15 22:28:00,
2013-09-15 18:42:00,64.4,42.6,-100.00,SSE,158,0.0,0.0,45,0.00,,,0.00,WSDL version 420,2013-09-15 22:42:00,
2013-09-15 18:49:00,64.1,42.9,29.23,SSE,158,0.0,0.0,46,-99.99,,,-99.99,WSDL version 420,2013-09-15 22:49:00,
2013-09-15 18:54:00,63.7,42.6,-100.00,SSE,158,0.0,0.0,46,0.00,,,0.00,WSDL version 420,2013-09-15 22:54:00,
2013-09-15 19:00:00,63.5,42.9,-100.00,SSE,158,0.0,0.0,47,-99.99,,,-99.99,WSDL version 420,2013-09-15 23:00:00,
2013-09-15 19:06:00,63.4,43.2,29.26,SSE,158,0.0,0.0,48,-99.99,,,-99.99,WSDL version 420,2013-09-15 23:06:00,
2013-09-15 19:12:00,63.3,43.6,29.26,North,0,0.0,0.0,49,-99.99,,,-99.99,WSDL version 420,2013-09-15 23:12:00,
2013-09-15 19:21:00,62.6,43.2,29.26,SSE,158,0.0,0.0,49,0.00,,,0.00,WSDL version 420,2013-09-15 23:21:00,
2013-09-15 19:27:00,62.3,43.5,29.26,SSE,158,0.0,0.0,50,0.00,,,0.00,WSDL version 420,2013-09-15 23:27:00,
2013-09-15 19:33:00,62.2,44.4,29.26,SSE,158,0.0,0.0,52,0.00,,,0.00,WSDL version 420,2013-09-15 23:33:00,
2013-09-15 19:42:00,61.9,44.6,29.23,SSE,158,0.0,0.0,53,-99.99,,,-99.99,WSDL version 420,2013-09-15 23:42:00,
2013-09-15 19:49:00,61.7,45.9,29.23,ESE,113,0.0,0.0,56,0.00,,,0.00,WSDL version 420,2013-09-15 23:49:00,
2013-09-15 19:55:00,61.7,46.3,-100.00,ESE,113,0.0,0.0,57,0.00,,,0.00,WSDL version 420,2013-09-15 23:55:00,
2013-09-15 20:00:00,61.5,46.6,-100.00,ESE,113,0.0,0.0,58,0.00,,,0.00,WSDL version 420,2013-09-16 00:00:00,
2013-09-15 20:06:00,61.3,46.5,-100.00,ESE,113,0.0,0.0,58,0.00,,,0.00,WSDL version 420,2013-09-16 00:06:00,
2013-09-15 20:12:00,61.1,45.7,29.26,ESE,113,0.0,0.0,57,-99.99,,,-99.99,WSDL version 420,2013-09-16 00:12:00,
2013-09-15 20:19:00,60.8,46.4,29.26,ESE,113,0.0,0.0,59,0.00,,,0.00,WSDL version 420,2013-09-16 00:19:00,
2013-09-15 20:25:00,60.7,46.5,29.26,ESE,113,0.0,0.0,60,0.00,,,0.00,WSDL version 420,2013-09-16 00:25:00,
2013-09-15 20:31:00,60.4,46.2,29.26,SE,135,0.0,0.0,60,0.00,,,0.00,WSDL version 420,2013-09-16 00:31:00,
2013-09-15 20:41:00,60.1,46.4,29.26,SE,135,0.0,0.0,61,0.00,,,0.00,WSDL version 420,2013-09-16 00:41:00,
2013-09-15 20:47:00,59.9,46.5,29.26,SE,135,0.0,0.0,61,-99.99,,,-99.99,WSDL version 420,2013-09-16 00:47:00,
2013-09-15 20:53:00,59.8,46.6,29.26,SE,135,0.0,0.0,62,0.00,,,0.00,WSDL version 420,2013-09-16 00:53:00,
2013-09-15 20:59:00,59.5,46.6,29.26,SE,135,0.0,0.0,62,0.00,,,0.00,WSDL version 420,2013-09-16 00:59:00,
2013-09-15 21:06:00,59.2,46.7,29.26,SE,135,0.0,0.0,63,0.00,,,0.00,WSDL version 420,2013-09-16 01:06:00,
2013-09-15 21:11:00,59.2,46.8,-100.00,SE,135,0.0,0.0,64,0.00,,,0.00,WSDL version 420,2013-09-16 01:11:00,
2013-09-15 21:17:00,59.0,46.9,29.26,SE,135,0.0,0.0,64,-99.99,,,-99.99,WSDL version 420,2013-09-16 01:17:00,
2013-09-15 21:23:00,58.9,47.0,29.26,SE,135,0.0,0.0,65,0.00,,,0.00,WSDL version 420,2013-09-16 01:23:00,
2013-09-15 21:30:00,58.7,47.0,29.26,SE,135,0.0,0.0,65,0.00,,,0.00,WSDL version 420,2013-09-16 01:30:00,
2013-09-15 21:35:00,58.6,47.3,29.26,SE,135,0.0,0.0,66,0.00,,,0.00,WSDL version 420,2013-09-16 01:35:00,
2013-09-15 21:41:00,58.6,47.4,29.26,SE,135,0.0,0.0,67,0.00,,,0.00,WSDL version 420,2013-09-16 01:41:00,
2013-09-15 21:47:00,58.6,47.7,29.26,SE,135,0.0,0.0,67,0.00,,,0.00,WSDL version 420,2013-09-16 01:47:00,
2013-09-15 21:53:00,58.6,48.0,29.26,SE,135,0.0,0.0,68,0.00,,,0.00,WSDL version 420,2013-09-16 01:53:00,
2013-09-15 21:59:00,58.6,48.2,29.23,East,96,0.0,0.0,69,-99.99,,,-99.99,WSDL version 420,2013-09-16 01:59:00,
2013-09-15 22:05:00,58.5,48.3,29.23,East,90,0.0,0.0,69,0.00,,,0.00,WSDL version 420,2013-09-16 02:05:00,
2013-09-15 22:11:00,58.5,48.3,29.26,East,90,0.0,0.0,69,0.00,,,0.00,WSDL version 420,2013-09-16 02:11:00,
2013-09-15 22:17:00,58.4,48.3,29.26,East,90,0.0,0.0,69,0.00,,,0.00,WSDL version 420,2013-09-16 02:17:00,
2013-09-15 22:23:00,58.2,47.9,29.26,ESE,113,0.0,0.0,69,0.00,,,0.00,WSDL version 420,2013-09-16 02:23:00,
2013-09-15 22:29:00,58.1,48.0,29.23,ESE,113,0.0,0.0,69,0.00,,,0.00,WSDL version 420,2013-09-16 02:29:00,
2013-09-15 22:36:00,58.0,47.9,29.23,ESE,113,0.0,0.0,69,0.00,,,0.00,WSDL version 420,2013-09-16 02:36:00,
2013-09-15 22:42:00,57.9,47.8,29.26,ESE,113,0.0,0.0,69,0.00,,,0.00,WSDL version 420,2013-09-16 02:42:00,
2013-09-15 22:48:00,58.0,47.9,-100.00,ESE,113,0.0,0.0,69,0.00,,,0.00,WSDL version 420,2013-09-16 02:48:00,
2013-09-15 22:54:00,58.1,48.4,29.26,ESE,113,0.0,0.0,70,0.00,,,0.00,WSDL version 420,2013-09-16 02:54:00,
2013-09-15 23:00:00,58.1,48.5,29.26,East,100,0.0,0.0,71,0.00,,,0.00,WSDL version 420,2013-09-16 03:00:00,
2013-09-15 23:07:00,58.3,48.6,29.26,North,354,0.0,0.0,70,0.00,,,0.00,WSDL version 420,2013-09-16 03:07:00,
2013-09-15 23:15:00,59.0,48.1,29.26,NW,323,0.4,4.5,67,0.00,,,0.00,WSDL version 420,2013-09-16 03:15:00,
2013-09-15 23:22:00,59.2,47.8,29.26,NW,323,0.0,2.2,66,0.00,,,0.00,WSDL version 420,2013-09-16 03:22:00,
2013-09-15 23:28:00,59.2,47.8,-100.00,NNW,338,0.0,2.2,66,0.00,,,0.00,WSDL version 420,2013-09-16 03:28:00,
2013-09-15 23:33:00,59.0,47.5,-100.00,NNW,345,0.4,0.0,65,0.00,,,0.00,WSDL version 420,2013-09-16 03:33:00,
2013-09-15 23:44:00,58.6,46.5,29.26,NNW,343,0.4,2.5,64,0.00,,,0.00,WSDL version 420,2013-09-16 03:44:00,
2013-09-15 23:52:00,58.4,45.8,29.26,NNW,347,0.0,6.3,63,0.00,,,0.00,WSDL version 420,2013-09-16 03:52:00,